Time;durP1;ratioP1;P1;durP2;ratioP2;P2;SDS_P1;SDS_P2;PMS_P1;PMS_P2;Temp;Humidity;BMP_temperature;BMP_pressure;BME280_temperature;BME280_humidity;BME280_pressure;Samples;Min_cycle;Max_cycle;Signal;HPM_P1;HPM_P2
2023/10/13 00:01:04;;;;;;;5.60;4.80;;;20.30;1.00;;;;;;6305831;22;20378;-40
2023/10/13 00:03:31;;;;;;;5.90;4.90;;;20.30;1.00;;;;;;6307205;22;20485;-41
2023/10/13 00:06:02;;;;;;;6.03;4.70;;;20.20;1.00;;;;;;6309166;22;20827;-42
2023/10/13 00:08:29;;;;;;;4.87;4.43;;;20.20;1.00;;;;;;6310104;22;20351;-43
2023/10/13 00:11:02;;;;;;;9.77;5.10;;;20.20;1.00;;;;;;6311357;22;20447;-40
2023/10/13 00:13:34;;;;;;;7.77;5.17;;;20.20;1.00;;;;;;6311292;22;20778;-40
2023/10/13 00:15:59;;;;;;;4.73;4.23;;;20.20;1.00;;;;;;6310821;22;20477;-40
2023/10/13 00:18:27;;;;;;;4.57;4.17;;;20.10;1.00;;;;;;6310627;22;20591;-41
2023/10/13 00:20:56;;;;;;;5.10;4.60;;;20.10;1.00;;;;;;6310051;22;20187;-41
2023/10/13 00:23:22;;;;;;;5.10;4.60;;;20.00;1.00;;;;;;6310450;22;20852;-40
2023/10/13 00:25:56;;;;;;;7.00;4.10;;;20.00;1.00;;;;;;6310517;22;20378;-41
2023/10/13 00:28:24;;;;;;;7.53;4.80;;;20.00;1.00;;;;;;6309541;22;20762;-41
2023/10/13 00:31:00;;;;;;;6.47;4.50;;;19.90;1.00;;;;;;6308650;22;20382;-48
2023/10/13 00:33:26;;;;;;;14.00;5.13;;;19.90;1.00;;;;;;6310735;22;20599;-40
2023/10/13 00:35:52;;;;;;;10.17;5.60;;;19.90;1.00;;;;;;6308601;22;20354;-40
2023/10/13 00:38:18;;;;;;;6.93;4.80;;;19.80;1.00;;;;;;6308311;22;20463;-42
2023/10/13 00:40:51;;;;;;;6.77;4.47;;;19.80;1.00;;;;;;6306231;22;20155;-41
2023/10/13 00:48:33;;;;;;;6.27;4.60;;;19.70;1.00;;;;;;6309612;22;20785;-42
2023/10/13 00:51:18;;;;;;;6.00;4.00;;;19.60;1.00;;;;;;6307831;22;20413;-38
2023/10/13 00:53:44;;;;;;;5.43;4.23;;;19.60;1.00;;;;;;6307380;22;20503;-40
2023/10/13 00:56:21;;;;;;;4.83;4.30;;;19.50;1.00;;;;;;6308377;22;20669;-41
2023/10/13 00:58:47;;;;;;;5.47;4.30;;;19.50;1.00;;;;;;6308301;22;20429;-40
2023/10/13 01:01:21;;;;;;;7.13;4.77;;;19.50;1.00;;;;;;6309605;22;20780;-40
2023/10/13 01:04:08;;;;;;;7.33;4.70;;;19.40;1.00;;;;;;6257397;22;20406;-40
2023/10/13 01:06:34;;;;;;;5.57;4.20;;;19.40;1.00;;;;;;6308594;22;20471;-41
2023/10/13 01:09:12;;;;;;;7.50;4.57;;;19.40;1.00;;;;;;6308001;22;20410;-42
2023/10/13 01:11:39;;;;;;;6.67;5.20;;;19.30;1.00;;;;;;6307503;22;20132;-40
2023/10/13 01:14:05;;;;;;;6.63;4.50;;;19.30;1.00;;;;;;6309674;22;20458;-39
2023/10/13 01:16:30;;;;;;;5.73;4.77;;;19.30;1.00;;;;;;6309504;22;20429;-41
2023/10/13 01:18:59;;;;;;;6.13;4.40;;;19.30;1.00;;;;;;6308925;22;20195;-40
2023/10/13 01:21:27;;;;;;;6.00;4.53;;;19.20;1.00;;;;;;6307853;22;20148;-40
2023/10/13 01:23:53;;;;;;;5.03;4.33;;;19.20;1.00;;;;;;6280694;22;20355;-40
2023/10/13 01:26:24;;;;;;;5.53;4.27;;;19.20;1.00;;;;;;6306822;22;20382;-41
2023/10/13 01:28:50;;;;;;;7.83;4.67;;;19.20;1.00;;;;;;6307798;22;20789;-40
2023/10/13 01:31:25;;;;;;;6.43;4.90;;;19.10;1.00;;;;;;6307914;22;20405;-40
2023/10/13 01:33:54;;;;;;;5.00;4.47;;;19.10;1.00;;;;;;6307916;22;20386;-40
2023/10/13 01:36:21;;;;;;;7.20;4.53;;;19.10;1.00;;;;;;6309066;22;20486;-41
2023/10/13 01:38:47;;;;;;;16.50;5.93;;;19.10;1.00;;;;;;6308858;22;20398;-41
2023/10/13 01:41:13;;;;;;;5.63;4.40;;;19.10;1.00;;;;;;6281922;22;20424;-39
2023/10/13 01:43:39;;;;;;;6.20;5.20;;;19.00;1.00;;;;;;6309666;22;20386;-41
2023/10/13 01:46:05;;;;;;;5.80;5.20;;;19.00;1.00;;;;;;6310073;22;20920;-39
2023/10/13 01:48:32;;;;;;;6.77;4.63;;;19.00;1.00;;;;;;6309259;22;20152;-42
2023/10/13 01:51:00;;;;;;;7.30;5.37;;;19.00;1.00;;;;;;6309397;22;20178;-41
2023/10/13 01:53:28;;;;;;;6.17;5.63;;;18.90;1.00;;;;;;6308971;22;20360;-40
2023/10/13 01:55:57;;;;;;;5.90;4.30;;;18.90;1.00;;;;;;6309001;22;20401;-41
2023/10/13 01:58:23;;;;;;;6.80;4.50;;;18.90;1.00;;;;;;6309242;22;20536;-40
2023/10/13 02:00:48;;;;;;;5.63;4.37;;;18.90;1.00;;;;;;6308106;22;20647;-46
2023/10/13 02:11:45;;;;;;;5.20;4.53;;;18.80;1.00;;;;;;6309224;22;20167;-40
2023/10/13 02:14:11;;;;;;;5.33;4.83;;;18.80;1.00;;;;;;6307130;22;20389;-41
2023/10/13 02:16:38;;;;;;;4.60;4.20;;;18.80;1.00;;;;;;6307986;22;20604;-43
2023/10/13 02:19:04;;;;;;;6.90;5.07;;;18.80;1.00;;;;;;6308759;22;20511;-42
2023/10/13 02:21:38;;;;;;;5.00;4.50;;;18.70;1.00;;;;;;6309868;22;20382;-42
2023/10/13 02:24:12;;;;;;;5.77;4.70;;;18.70;1.00;;;;;;6307336;22;20155;-43
2023/10/13 02:26:40;;;;;;;5.33;4.50;;;18.70;1.00;;;;;;6307182;22;20444;-41
2023/10/13 02:29:12;;;;;;;9.50;5.20;;;18.70;1.00;;;;;;6307123;22;20674;-42
2023/10/13 02:31:39;;;;;;;5.43;4.93;;;18.60;1.00;;;;;;6306752;22;20395;-44
2023/10/13 02:34:09;;;;;;;7.10;4.87;;;18.60;1.00;;;;;;6306813;22;20646;-41
2023/10/13 02:36:48;;;;;;;6.30;5.30;;;18.60;1.00;;;;;;6281266;22;20397;-42
2023/10/13 02:39:25;;;;;;;6.40;4.93;;;18.60;1.00;;;;;;6307750;22;20425;-42
2023/10/13 02:41:50;;;;;;;7.60;5.00;;;18.60;1.00;;;;;;6308295;22;20385;-41
2023/10/13 02:44:31;;;;;;;6.57;4.70;;;18.60;1.00;;;;;;6308774;22;20382;-40
2023/10/13 02:46:57;;;;;;;8.10;4.70;;;18.60;1.00;;;;;;6307138;22;20780;-42
2023/10/13 02:49:33;;;;;;;4.97;4.00;;;18.50;1.00;;;;;;6308180;22;20373;-42
2023/10/13 02:52:05;;;;;;;5.63;4.90;;;18.50;1.00;;;;;;6308466;22;20374;-42
2023/10/13 02:54:37;;;;;;;8.40;4.73;;;18.50;1.00;;;;;;6308890;22;20447;-42
2023/10/13 02:57:06;;;;;;;5.57;4.53;;;18.50;1.00;;;;;;6307756;22;20386;-41
2023/10/13 02:59:39;;;;;;;5.20;4.33;;;18.40;1.00;;;;;;6308898;22;20401;-41
2023/10/13 03:02:18;;;;;;;6.40;5.17;;;18.50;1.00;;;;;;6308146;22;20409;-40
2023/10/13 03:05:09;;;;;;;5.90;5.40;;;18.50;1.00;;;;;;6306791;22;20407;-41
2023/10/13 03:07:36;;;;;;;8.93;5.00;;;18.50;1.00;;;;;;6307510;22;20442;-40
2023/10/13 03:10:09;;;;;;;6.70;4.40;;;18.40;1.00;;;;;;6308199;22;20829;-41
2023/10/13 03:12:36;;;;;;;5.20;4.00;;;18.40;1.00;;;;;;6307692;22;20416;-41
2023/10/13 03:15:19;;;;;;;6.53;4.80;;;18.40;1.00;;;;;;6306859;22;20436;-42
2023/10/13 03:17:46;;;;;;;6.77;5.43;;;18.40;1.00;;;;;;6306466;22;20422;-42
2023/10/13 03:20:22;;;;;;;5.37;3.97;;;18.40;1.00;;;;;;6278675;22;20473;-41
2023/10/13 03:22:52;;;;;;;7.77;5.00;;;18.40;1.00;;;;;;6305801;22;20614;-42
2023/10/13 03:30:20;;;;;;;7.60;5.70;;;18.30;1.00;;;;;;6306106;22;20416;-40
2023/10/13 03:32:48;;;;;;;8.23;5.43;;;18.30;1.00;;;;;;6305404;22;20382;-42
2023/10/13 03:35:23;;;;;;;8.77;5.83;;;18.30;1.00;;;;;;6305915;22;20409;-42
2023/10/13 03:37:52;;;;;;;6.63;4.93;;;18.30;1.00;;;;;;6306176;22;20518;-41
2023/10/13 03:43:08;;;;;;;5.67;4.73;;;18.30;1.00;;;;;;6305192;22;20485;-42
2023/10/13 03:45:39;;;;;;;5.80;4.20;;;18.20;1.00;;;;;;6305115;22;20472;-40
2023/10/13 03:48:09;;;;;;;5.03;4.50;;;18.20;1.00;;;;;;6306064;22;20388;-42
2023/10/13 03:51:21;;;;;;;6.30;5.70;;;18.20;1.00;;;;;;6304998;22;20472;-40
2023/10/13 03:53:33;;;;;;;11.67;5.80;;;18.20;1.00;;;;;;6288544;22;20403;-43
2023/10/13 03:56:08;;;;;;;7.50;5.20;;;18.20;1.00;;;;;;6305905;22;20472;-41
2023/10/13 03:58:45;;;;;;;6.93;5.10;;;18.20;1.00;;;;;;6305366;22;20544;-43
2023/10/13 04:01:15;;;;;;;7.53;5.27;;;18.10;1.00;;;;;;6304741;22;20423;-42
2023/10/13 04:04:34;;;;;;;6.03;4.70;;;18.10;1.00;;;;;;6305290;22;20393;-41
2023/10/13 04:06:51;;;;;;;6.47;5.30;;;18.10;1.00;;;;;;6288992;22;20647;-43
2023/10/13 04:10:46;;;;;;;7.97;5.30;;;18.10;1.00;;;;;;6305449;22;20434;-39
2023/10/13 04:17:26;;;;;;;6.17;5.20;;;18.10;1.00;;;;;;6307195;22;20412;-41
2023/10/13 04:33:38;;;;;;;5.67;5.10;;;18.00;1.00;;;;;;6305586;22;20425;-41
2023/10/13 04:36:14;;;;;;;4.63;4.17;;;18.00;1.00;;;;;;6305346;22;20363;-41
2023/10/13 04:38:55;;;;;;;15.57;4.90;;;18.00;1.00;;;;;;6305842;22;20508;-42
2023/10/13 04:41:36;;;;;;;9.73;4.80;;;18.00;1.00;;;;;;6306446;22;20378;-43
2023/10/13 04:44:23;;;;;;;6.47;4.83;;;18.00;1.00;;;;;;6281631;22;20481;-44
2023/10/13 04:52:12;;;;;;;6.43;4.50;;;18.00;1.00;;;;;;6305668;22;20405;-42
2023/10/13 04:57:32;;;;;;;9.43;5.17;;;18.00;1.00;;;;;;6305845;22;20362;-41
2023/10/13 05:51:33;;;;;;;6.40;5.23;;;17.80;1.00;;;;;;6302138;22;20701;-41
2023/10/13 06:29:57;;;;;;;5.47;4.80;;;18.80;1.00;;;;;;6274677;22;20386;-41
2023/10/13 06:32:26;;;;;;;5.53;5.03;;;18.90;1.00;;;;;;6272265;22;20383;-42
2023/10/13 06:34:58;;;;;;;7.67;5.40;;;19.10;1.00;;;;;;6275822;22;20149;-42
2023/10/13 06:37:30;;;;;;;6.03;4.17;;;19.10;1.00;;;;;;6274725;22;20669;-43
2023/10/13 06:39:58;;;;;;;6.80;4.50;;;19.30;1.00;;;;;;6274355;22;20418;-41
2023/10/13 06:42:27;;;;;;;8.80;4.93;;;19.40;1.00;;;;;;6274817;22;20375;-41
2023/10/13 06:44:55;;;;;;;8.70;5.47;;;19.60;1.00;;;;;;6275185;22;20806;-43
2023/10/13 06:47:22;;;;;;;10.60;5.23;;;19.80;1.00;;;;;;6272728;22;20465;-44
2023/10/13 06:49:51;;;;;;;8.10;4.73;;;20.00;1.00;;;;;;6273233;22;20383;-40
2023/10/13 06:52:17;;;;;;;7.80;5.10;;;20.30;1.00;;;;;;6271454;22;20500;-40
2023/10/13 06:54:43;;;;;;;9.60;5.83;;;20.50;1.00;;;;;;6272195;22;20360;-40
2023/10/13 06:57:35;;;;;;;8.00;4.90;;;20.70;1.00;;;;;;6270861;22;20347;-42
2023/10/13 06:59:56;;;;;;;9.17;5.27;;;20.90;1.00;;;;;;6268340;22;20823;-42
2023/10/13 07:02:21;;;;;;;7.53;4.80;;;21.20;1.00;;;;;;6269330;22;20379;-42
2023/10/13 07:04:56;;;;;;;7.77;5.40;;;21.30;1.00;;;;;;6270365;22;20624;-41
2023/10/13 07:07:23;;;;;;;8.60;6.13;;;21.50;1.00;;;;;;6272097;22;20159;-42
2023/10/13 07:09:55;;;;;;;9.40;5.30;;;21.70;1.00;;;;;;6292950;22;20414;-41
2023/10/13 07:12:27;;;;;;;6.90;4.80;;;21.90;1.00;;;;;;6277433;22;20669;-42
2023/10/13 07:14:59;;;;;;;9.83;5.80;;;22.20;1.00;;;;;;6304890;22;20374;-41
2023/10/13 07:17:25;;;;;;;6.73;5.10;;;22.40;1.00;;;;;;6305942;22;20444;-41
2023/10/13 07:19:56;;;;;;;7.40;4.70;;;22.60;1.00;;;;;;6305520;22;20383;-42
2023/10/13 07:22:22;;;;;;;10.43;4.70;;;22.80;1.00;;;;;;6304690;22;20386;-40
2023/10/13 07:24:49;;;;;;;18.57;6.00;;;23.10;1.00;;;;;;6306044;22;20509;-42
2023/10/13 07:27:24;;;;;;;10.13;5.17;;;23.30;1.00;;;;;;6303300;22;20362;-42
2023/10/13 07:30:13;;;;;;;8.70;4.53;;;23.50;1.00;;;;;;6303298;22;20467;-41
2023/10/13 07:32:44;;;;;;;10.87;4.60;;;23.70;1.00;;;;;;6280322;22;20508;-42
2023/10/13 07:35:22;;;;;;;10.40;5.43;;;24.00;1.00;;;;;;6304491;22;20484;-42
2023/10/13 07:37:52;;;;;;;9.00;4.80;;;24.10;1.00;;;;;;6278688;22;20421;-42
2023/10/13 07:43:00;;;;;;;9.60;5.50;;;24.00;1.00;;;;;;6301131;22;20622;-41
2023/10/13 07:46:12;;;;;;;10.83;4.93;;;23.80;1.00;;;;;;6302526;22;20588;-41
2023/10/13 07:48:23;;;;;;;7.17;4.40;;;23.70;1.00;;;;;;6286162;22;20543;-42
2023/10/13 07:51:04;;;;;;;7.40;4.90;;;23.70;1.00;;;;;;6304913;22;20406;-42
2023/10/13 07:53:40;;;;;;;5.80;4.80;;;23.80;1.00;;;;;;6305714;22;20420;-41
2023/10/13 07:56:11;;;;;;;9.77;5.07;;;23.80;1.00;;;;;;6282279;22;20477;-42
2023/10/13 08:01:34;;;;;;;9.40;4.87;;;23.70;1.00;;;;;;6278408;22;20401;-38
2023/10/13 08:04:11;;;;;;;9.30;4.80;;;23.90;1.00;;;;;;6277961;22;20429;-43
2023/10/13 08:06:37;;;;;;;6.87;4.30;;;24.20;1.00;;;;;;6303633;22;20350;-42
2023/10/13 08:11:48;;;;;;;12.47;4.57;;;24.50;1.00;;;;;;6306801;22;20833;-42
2023/10/13 08:14:22;;;;;;;13.43;5.57;;;24.60;1.00;;;;;;6306912;22;20386;-41
2023/10/13 08:16:59;;;;;;;7.27;5.10;;;24.80;1.00;;;;;;6306858;22;20430;-41
2023/10/13 08:22:35;;;;;;;8.90;4.57;;;25.00;1.00;;;;;;6305241;22;20781;-44
2023/10/13 08:25:20;;;;;;;8.73;4.70;;;25.20;1.00;;;;;;6303119;22;20446;-40
2023/10/13 08:30:29;;;;;;;9.80;4.70;;;25.70;1.00;;;;;;6304974;22;20689;-44
2023/10/13 08:32:56;;;;;;;12.73;5.37;;;25.90;1.00;;;;;;6303368;22;20373;-41
2023/10/13 08:35:23;;;;;;;12.77;5.40;;;26.30;1.00;;;;;;6304564;22;20452;-42
2023/10/13 08:40:32;;;;;;;11.20;4.87;;;26.90;1.00;;;;;;6277601;22;20393;-40
2023/10/13 08:48:13;;;;;;;6.23;5.17;;;27.80;1.00;;;;;;6281600;22;20401;-42
2023/10/13 08:50:52;;;;;;;8.50;4.63;;;27.90;1.00;;;;;;6306313;22;20151;-40
2023/10/13 09:01:48;;;;;;;8.90;4.90;;;28.60;1.00;;;;;;6305528;22;20386;-44
2023/10/13 09:06:47;;;;;;;6.10;4.30;;;29.20;1.00;;;;;;6307941;22;20392;-40
2023/10/13 09:09:34;;;;;;;5.63;4.70;;;29.40;1.00;;;;;;6272693;22;20466;-40
2023/10/13 09:12:09;;;;;;;8.23;4.60;;;29.70;1.00;;;;;;6275785;22;20672;-40
2023/10/13 09:14:48;;;;;;;10.67;4.40;;;29.90;1.00;;;;;;6277233;22;20591;-40
2023/10/13 09:19:49;;;;;;;6.53;4.40;;;30.10;1.00;;;;;;6274858;22;20406;-41
2023/10/13 09:22:34;;;;;;;10.30;4.87;;;30.20;1.00;;;;;;6276002;22;20379;-41
2023/10/13 09:25:00;;;;;;;8.70;4.87;;;30.30;1.00;;;;;;6271767;22;20379;-41
2023/10/13 09:27:33;;;;;;;9.00;5.23;;;30.50;1.00;;;;;;6274656;22;20616;-42
2023/10/13 09:30:09;;;;;;;7.80;5.00;;;30.80;1.00;;;;;;6277346;22;20436;-41
2023/10/13 09:32:50;;;;;;;7.17;4.50;;;31.10;1.00;;;;;;6277095;22;20670;-40
2023/10/13 09:35:22;;;;;;;7.80;4.53;;;31.20;1.00;;;;;;6273544;22;20378;-44
2023/10/13 09:37:50;;;;;;;8.70;4.87;;;31.40;1.00;;;;;;6274819;22;20525;-40
2023/10/13 09:40:33;;;;;;;5.97;4.53;;;31.50;1.00;;;;;;6274791;22;20769;-40
2023/10/13 09:43:01;;;;;;;11.50;6.83;;;31.80;1.00;;;;;;6274370;22;20602;-44
2023/10/13 09:45:29;;;;;;;5.90;4.50;;;32.00;1.00;;;;;;6272162;22;20379;-44
2023/10/13 09:48:00;;;;;;;6.07;4.60;;;32.20;1.00;;;;;;6272172;22;20444;-41
2023/10/13 09:50:27;;;;;;;8.53;4.70;;;32.40;1.00;;;;;;6270078;22;20802;-41
2023/10/13 09:52:53;;;;;;;7.13;4.40;;;32.60;1.00;;;;;;6271654;22;20636;-44
2023/10/13 09:55:33;;;;;;;9.97;4.87;;;32.80;1.00;;;;;;6273746;22;20389;-42
2023/10/13 09:58:09;;;;;;;6.97;4.07;;;33.30;1.00;;;;;;6272618;22;20471;-41
2023/10/13 10:00:48;;;;;;;8.30;4.50;;;33.70;1.00;;;;;;6273875;22;20386;-40
2023/10/13 10:06:27;;;;;;;6.00;4.37;;;34.40;1.00;;;;;;6275354;22;20349;-42
2023/10/13 10:08:51;;;;;;;7.13;4.70;;;34.50;1.00;;;;;;6281697;22;20570;-41
2023/10/13 10:11:25;;;;;;;9.83;5.20;;;34.70;1.00;;;;;;6304618;22;20390;-42
2023/10/13 10:14:00;;;;;;;9.90;5.00;;;34.90;1.00;;;;;;6305726;22;20442;-40
2023/10/13 10:16:46;;;;;;;7.37;4.40;;;35.10;1.00;;;;;;6307302;22;20393;-42
2023/10/13 10:19:12;;;;;;;8.83;4.43;;;35.30;1.00;;;;;;6281115;22;20400;-41
2023/10/13 10:21:38;;;;;;;11.70;4.90;;;35.30;1.00;;;;;;6305844;22;20785;-41
2023/10/13 10:24:33;;;;;;;6.20;4.00;;;35.60;1.00;;;;;;6278072;22;20325;-40
2023/10/13 10:26:59;;;;;;;7.70;5.07;;;35.60;1.00;;;;;;6305596;22;20369;-43
2023/10/13 10:29:24;;;;;;;6.33;4.63;;;35.20;1.00;;;;;;6302418;22;20633;-40
2023/10/13 10:31:51;;;;;;;7.67;5.00;;;35.20;1.00;;;;;;6303151;22;20181;-42
2023/10/13 10:34:21;;;;;;;10.23;4.27;;;35.00;1.00;;;;;;6277155;22;20189;-42
2023/10/13 10:36:53;;;;;;;8.30;5.13;;;35.00;1.00;;;;;;6303397;22;20336;-40
2023/10/13 10:39:19;;;;;;;6.73;5.17;;;35.50;1.00;;;;;;6302311;22;20402;-43
2023/10/13 10:41:46;;;;;;;5.93;4.17;;;35.50;1.00;;;;;;6302266;22;20830;-42
2023/10/13 10:44:25;;;;;;;5.17;4.13;;;35.10;1.00;;;;;;6303675;22;20148;-41
2023/10/13 10:46:57;;;;;;;7.07;4.93;;;35.20;1.00;;;;;;6300680;22;20395;-41
2023/10/13 10:49:29;;;;;;;6.73;5.60;;;35.30;1.00;;;;;;6275212;22;20463;-41
2023/10/13 10:52:04;;;;;;;12.03;5.07;;;35.30;1.00;;;;;;6303499;22;20456;-41
2023/10/13 10:54:33;;;;;;;6.40;4.97;;;35.20;99.90;;;;;;6303925;22;20341;-43
2023/10/13 10:57:11;;;;;;;13.97;4.73;;;34.80;99.90;;;;;;6276931;22;20365;-41
2023/10/13 10:59:40;;;;;;;7.63;4.50;;;34.80;99.90;;;;;;6302293;22;20879;-40
2023/10/13 11:02:08;;;;;;;5.40;4.60;;;35.40;99.90;;;;;;6302201;22;20390;-42
2023/10/13 11:04:40;;;;;;;8.90;4.80;;;36.00;1.00;;;;;;6301549;22;20426;-42
2023/10/13 11:07:06;;;;;;;7.67;5.00;;;36.40;1.00;;;;;;6272168;22;20800;-41
2023/10/13 11:09:45;;;;;;;7.17;4.47;;;36.90;1.00;;;;;;6302242;22;20934;-41
2023/10/13 11:12:15;;;;;;;5.60;4.17;;;37.10;1.00;;;;;;6277614;22;20333;-42
2023/10/13 11:14:48;;;;;;;5.80;4.50;;;37.00;1.00;;;;;;6301767;22;20382;-42
2023/10/13 11:17:26;;;;;;;5.90;4.60;;;36.90;1.00;;;;;;6300182;22;20662;-41
2023/10/13 11:19:52;;;;;;;5.20;4.70;;;36.60;99.90;;;;;;6272633;22;20443;-42
2023/10/13 11:22:36;;;;;;;10.57;5.20;;;36.30;99.90;;;;;;6300899;22;20359;-44
2023/10/13 11:25:09;;;;;;;7.43;4.47;;;36.20;99.90;;;;;;6301608;22;20487;-42
2023/10/13 11:30:25;;;;;;;6.17;4.90;;;36.40;99.90;;;;;;6299294;22;20642;-40
2023/10/13 11:33:03;;;;;;;13.00;4.80;;;36.60;99.90;;;;;;6299212;22;20707;-43
2023/10/13 11:46:48;;;;;;;7.70;4.63;;;37.80;1.00;;;;;;6300202;22;20383;-43
2023/10/13 11:51:45;;;;;;;7.50;4.40;;;38.30;1.00;;;;;;6300449;22;20837;-43
2023/10/13 11:54:19;;;;;;;7.27;4.93;;;38.50;1.00;;;;;;6302520;22;20393;-41
2023/10/13 11:56:45;;;;;;;7.37;5.23;;;38.80;1.00;;;;;;6302040;22;20386;-41
2023/10/13 11:59:17;;;;;;;8.43;5.20;;;38.90;1.00;;;;;;6302020;22;20429;-41
2023/10/13 12:04:41;;;;;;;7.93;4.47;;;38.60;99.90;;;;;;6301716;22;20401;-42
2023/10/13 12:07:40;;;;;;;6.13;4.27;;;38.50;99.90;;;;;;6301612;22;20803;-41
2023/10/13 12:10:14;;;;;;;9.80;4.70;;;38.40;99.90;;;;;;6303683;22;20415;-41
2023/10/13 12:12:42;;;;;;;7.13;4.87;;;38.60;99.90;;;;;;6304026;22;20644;-44
2023/10/13 12:15:09;;;;;;;8.17;4.10;;;38.70;99.90;;;;;;6277231;22;20350;-43
2023/10/13 12:17:35;;;;;;;6.23;4.70;;;38.60;99.90;;;;;;6305650;22;20389;-43
2023/10/13 12:20:05;;;;;;;10.50;4.23;;;39.00;99.90;;;;;;6278227;22;20493;-43
2023/10/13 12:22:42;;;;;;;7.67;5.23;;;39.30;99.90;;;;;;6278450;22;20386;-41
2023/10/13 12:27:57;;;;;;;5.97;4.60;;;39.70;1.00;;;;;;6304626;22;20508;-42
2023/10/13 12:30:36;;;;;;;7.30;4.70;;;39.70;99.90;;;;;;6306031;22;20431;-42
2023/10/13 12:33:09;;;;;;;6.27;4.33;;;39.70;99.90;;;;;;6277711;22;20381;-42
2023/10/13 12:35:54;;;;;;;7.17;5.50;;;39.90;1.00;;;;;;6306422;22;20382;-43
2023/10/13 12:38:37;;;;;;;10.97;5.20;;;40.00;1.00;;;;;;6282361;22;20453;-43
2023/10/13 12:52:20;;;;;;;12.03;6.27;;;40.20;1.00;;;;;;6207747;23;20466;-42
2023/10/13 12:54:47;;;;;;;12.23;5.20;;;40.00;99.90;;;;;;6262609;22;20378;-42
2023/10/13 12:57:14;;;;;;;7.47;4.73;;;39.90;99.90;;;;;;6302613;22;20795;-41
2023/10/13 12:59:40;;;;;;;5.73;4.60;;;39.90;99.90;;;;;;6301633;22;20382;-42
2023/10/13 13:02:07;;;;;;;6.53;4.50;;;39.70;99.90;;;;;;6301241;22;20413;-42
2023/10/13 13:04:36;;;;;;;4.83;4.37;;;39.80;99.90;;;;;;6305256;22;20438;-42
2023/10/13 13:07:05;;;;;;;6.63;4.60;;;39.60;99.90;;;;;;6304903;22;20811;-44
2023/10/13 13:09:31;;;;;;;5.33;4.37;;;39.70;99.90;;;;;;6303835;22;20496;-42
2023/10/13 13:11:57;;;;;;;4.63;4.10;;;39.70;99.90;;;;;;6303950;22;20382;-42
2023/10/13 13:14:34;;;;;;;5.63;4.97;;;39.20;99.90;;;;;;6274288;22;20394;-43
2023/10/13 13:17:06;;;;;;;8.30;4.20;;;39.00;99.90;;;;;;6272795;22;20518;-42
2023/10/13 13:19:35;;;;;;;4.97;4.57;;;38.80;99.90;;;;;;6301185;22;20414;-42
2023/10/13 13:22:02;;;;;;;8.30;5.30;;;38.50;99.90;;;;;;6302067;22;20443;-44
2023/10/13 13:24:29;;;;;;;6.07;4.53;;;38.50;99.90;;;;;;6300155;22;20333;-43
2023/10/13 13:26:56;;;;;;;6.33;4.80;;;38.80;99.90;;;;;;6301281;22;20432;-41
2023/10/13 13:29:22;;;;;;;10.40;5.53;;;38.90;99.90;;;;;;6304728;22;20434;-41
2023/10/13 13:31:47;;;;;;;10.07;4.37;;;38.90;99.90;;;;;;6305720;22;20493;-44
2023/10/13 13:34:13;;;;;;;8.73;4.60;;;38.90;99.90;;;;;;6303803;22;20149;-40
2023/10/13 13:36:44;;;;;;;8.70;4.00;;;39.00;99.90;;;;;;6304282;22;20129;-41
2023/10/13 13:39:10;;;;;;;5.13;4.33;;;39.20;99.90;;;;;;6304449;22;20427;-41
2023/10/13 13:41:36;;;;;;;8.73;4.60;;;39.10;99.90;;;;;;6304955;22;20485;-41
2023/10/13 13:44:15;;;;;;;4.00;3.60;;;38.80;99.90;;;;;;6306386;22;20386;-42
2023/10/13 13:46:41;;;;;;;4.87;4.37;;;38.90;99.90;;;;;;6302592;22;20276;-42
2023/10/13 13:49:14;;;;;;;4.77;4.00;;;38.80;99.90;;;;;;6276010;22;20528;-44
2023/10/13 13:51:39;;;;;;;4.90;4.50;;;38.70;99.90;;;;;;6304545;22;20351;-41
2023/10/13 13:54:07;;;;;;;5.00;4.40;;;38.50;99.90;;;;;;6304520;22;20567;-43
2023/10/13 13:56:38;;;;;;;13.63;6.17;;;38.50;99.90;;;;;;6304439;22;20293;-41
2023/10/13 13:59:08;;;;;;;5.83;4.50;;;38.60;99.90;;;;;;6302461;22;20452;-41
2023/10/13 14:01:37;;;;;;;5.27;4.00;;;38.60;99.90;;;;;;6301951;22;20673;-41
2023/10/13 14:04:06;;;;;;;5.80;4.40;;;38.60;99.90;;;;;;6278271;22;20409;-41
2023/10/13 14:06:33;;;;;;;9.37;4.23;;;38.10;99.90;;;;;;6303694;22;20354;-44
2023/10/13 14:09:05;;;;;;;5.03;4.23;;;37.70;99.90;;;;;;6245924;22;20510;-43
2023/10/13 14:16:51;;;;;;;4.93;4.00;;;37.50;99.90;;;;;;6274621;22;20790;-43
2023/10/13 14:19:26;;;;;;;8.90;3.80;;;37.50;99.90;;;;;;6274070;22;20374;-42
2023/10/13 14:21:55;;;;;;;5.30;4.20;;;37.30;99.90;;;;;;6271965;22;20353;-42
2023/10/13 14:24:27;;;;;;;3.87;3.57;;;37.40;99.90;;;;;;6273412;22;20679;-40
2023/10/13 14:27:02;;;;;;;4.70;4.20;;;37.30;99.90;;;;;;6271170;22;20395;-41
2023/10/13 14:29:27;;;;;;;7.83;4.90;;;37.50;99.90;;;;;;6271007;22;20922;-41
2023/10/13 14:31:53;;;;;;;5.63;4.07;;;37.60;99.90;;;;;;6271676;22;20387;-40
2023/10/13 14:34:21;;;;;;;5.37;4.00;;;37.70;99.90;;;;;;6272795;22;20678;-40
2023/10/13 14:36:48;;;;;;;4.07;3.67;;;37.50;99.90;;;;;;6274894;22;20175;-42
2023/10/13 14:39:20;;;;;;;4.67;4.07;;;37.40;99.90;;;;;;6273084;22;20416;-42
2023/10/13 14:41:47;;;;;;;3.80;3.50;;;37.40;99.90;;;;;;6271185;22;20501;-44
2023/10/13 14:44:14;;;;;;;5.80;3.70;;;37.30;99.90;;;;;;6272951;22;20370;-41
2023/10/13 14:46:39;;;;;;;8.33;3.80;;;37.20;99.90;;;;;;6270725;22;20502;-42
2023/10/13 14:49:06;;;;;;;4.87;3.47;;;37.10;99.90;;;;;;6269874;22;20477;-41
2023/10/13 14:51:32;;;;;;;4.10;3.30;;;36.90;99.90;;;;;;6271064;22;20151;-42
2023/10/13 14:54:03;;;;;;;5.17;3.53;;;36.60;99.90;;;;;;6270674;22;20358;-43
2023/10/13 14:56:29;;;;;;;4.03;3.63;;;36.20;99.90;;;;;;6271323;22;20456;-44
2023/10/13 14:58:55;;;;;;;4.40;4.00;;;36.20;99.90;;;;;;6269739;22;20766;-43
2023/10/13 15:01:22;;;;;;;3.60;3.30;;;35.90;99.90;;;;;;6269400;22;20313;-41
2023/10/13 15:03:50;;;;;;;3.47;3.17;;;35.90;99.90;;;;;;6272061;22;20133;-41
2023/10/13 15:06:30;;;;;;;6.80;3.50;;;35.90;99.90;;;;;;6273453;22;20370;-42
2023/10/13 15:08:58;;;;;;;3.97;3.67;;;35.90;99.90;;;;;;6282565;22;20518;-42
2023/10/13 15:11:35;;;;;;;5.97;3.40;;;35.90;99.90;;;;;;6304809;22;20357;-42
2023/10/13 15:14:06;;;;;;;5.70;3.63;;;35.70;99.90;;;;;;6301481;22;20360;-45
2023/10/13 15:16:33;;;;;;;5.50;3.53;;;35.60;99.90;;;;;;6300190;22;20378;-44
2023/10/13 15:18:59;;;;;;;3.83;3.40;;;35.50;99.90;;;;;;6300904;22;20361;-42
2023/10/13 15:21:35;;;;;;;3.47;3.17;;;35.50;99.90;;;;;;6301564;22;20362;-42
2023/10/13 15:24:13;;;;;;;3.90;3.50;;;35.50;99.90;;;;;;6301079;22;20423;-42
2023/10/13 15:26:47;;;;;;;5.03;4.13;;;35.40;99.90;;;;;;6300079;22;20671;-45
2023/10/13 15:29:16;;;;;;;6.07;4.57;;;35.30;99.90;;;;;;6304104;22;20447;-43
2023/10/13 15:31:54;;;;;;;6.43;4.07;;;35.10;99.90;;;;;;6252552;22;20426;-40
2023/10/13 15:34:19;;;;;;;4.33;3.70;;;34.90;99.90;;;;;;6303296;22;20398;-42
2023/10/13 15:36:46;;;;;;;4.80;3.60;;;34.80;99.90;;;;;;6299663;22;20367;-44
2023/10/13 15:39:15;;;;;;;3.80;3.40;;;34.70;99.90;;;;;;6302683;22;20215;-43
2023/10/13 15:41:41;;;;;;;4.80;3.33;;;34.50;99.90;;;;;;6299552;22;20387;-42
2023/10/13 15:44:13;;;;;;;4.17;3.60;;;34.30;99.90;;;;;;6274268;22;20422;-44
2023/10/13 15:46:39;;;;;;;3.40;2.97;;;34.00;99.90;;;;;;6299951;22;20828;-44
2023/10/13 15:49:05;;;;;;;3.87;3.20;;;33.80;99.90;;;;;;6274617;22;20469;-42
2023/10/13 15:51:37;;;;;;;5.90;3.47;;;33.60;99.90;;;;;;6301066;22;20362;-42
2023/10/13 15:54:04;;;;;;;5.30;3.13;;;33.20;99.90;;;;;;6299654;22;20339;-41
2023/10/13 15:56:33;;;;;;;5.10;2.93;;;32.70;99.90;;;;;;6301711;22;20356;-41
2023/10/13 15:59:01;;;;;;;3.40;3.03;;;32.10;99.90;;;;;;6302818;22;20945;-42
2023/10/13 16:01:28;;;;;;;5.40;3.50;;;31.70;99.90;;;;;;6304064;22;20763;-41
2023/10/13 16:03:54;;;;;;;3.73;3.13;;;31.40;99.90;;;;;;6302822;22;20400;-44
2023/10/13 16:06:25;;;;;;;4.77;3.37;;;31.10;99.90;;;;;;6274559;22;20370;-40
2023/10/13 16:08:51;;;;;;;6.30;3.70;;;30.90;99.90;;;;;;6301997;22;20442;-40
2023/10/13 16:11:18;;;;;;;4.00;3.17;;;30.70;99.90;;;;;;6302474;22;20400;-43
2023/10/13 16:13:45;;;;;;;7.00;3.40;;;30.40;99.90;;;;;;6301785;22;20480;-42
2023/10/13 16:16:24;;;;;;;3.40;2.40;;;30.30;99.90;;;;;;6275772;22;20513;-41
2023/10/13 16:18:51;;;;;;;5.20;3.67;;;30.00;99.90;;;;;;6275646;22;20333;-40
2023/10/13 16:21:18;;;;;;;5.23;3.17;;;29.70;99.90;;;;;;6272887;22;20369;-40
2023/10/13 16:23:47;;;;;;;5.07;3.30;;;29.50;99.90;;;;;;6302939;22;20737;-40
2023/10/13 16:26:22;;;;;;;5.43;3.53;;;29.30;99.90;;;;;;6272952;22;20477;-42
2023/10/13 16:28:48;;;;;;;4.80;3.37;;;29.00;99.90;;;;;;6300567;22;20443;-40
2023/10/13 16:31:14;;;;;;;6.23;3.20;;;28.80;99.90;;;;;;6300977;22;20367;-41
2023/10/13 16:33:39;;;;;;;5.93;4.00;;;28.60;99.90;;;;;;6300518;22;20449;-41
2023/10/13 16:36:08;;;;;;;6.67;3.37;;;28.50;99.90;;;;;;6302835;22;20132;-40
2023/10/13 16:38:37;;;;;;;6.23;3.20;;;28.30;99.90;;;;;;6301580;22;20390;-43
2023/10/13 16:41:08;;;;;;;8.10;4.20;;;28.10;99.90;;;;;;6274121;22;20580;-40
2023/10/13 16:43:37;;;;;;;6.13;3.90;;;28.00;99.90;;;;;;6301884;22;20784;-41
2023/10/13 16:46:06;;;;;;;4.17;3.50;;;27.80;99.90;;;;;;6297648;22;20390;-43